Time;durP1;ratioP1;P1;durP2;ratioP2;P2;SDS_P1;SDS_P2;PMS_P1;PMS_P2;Temp;Humidity;BMP_temperature;BMP_pressure;BME280_temperature;BME280_humidity;BME280_pressure;Samples;Min_cycle;Max_cycle;Signal;HPM_P1;HPM_P2
2021/06/20 00:01:33;;;;;;;;;8.25;8.00;;;;;-146.59;100.00;59519.28;4939058;28;45595;-92
2021/06/20 00:03:59;;;;;;;;;13.25;8.00;;;;;-146.59;100.00;59519.28;4938114;28;46141;-90
2021/06/20 00:06:28;;;;;;;;;8.75;7.00;;;;;-146.59;100.00;59519.28;4923727;28;45997;-92
2021/06/20 00:08:54;;;;;;;;;9.00;7.00;;;;;-146.59;100.00;59519.28;4927664;28;45415;-90
2021/06/20 00:11:20;;;;;;;;;6.25;6.25;;;;;-146.59;100.00;59519.28;4921950;28;45499;-93
2021/06/20 00:13:46;;;;;;;;;5.75;5.00;;;;;-146.59;100.00;59519.28;4931562;28;47267;-93
2021/06/20 00:16:11;;;;;;;;;5.00;5.00;;;;;-146.59;100.00;59519.28;4924554;28;45329;-91
2021/06/20 00:18:36;;;;;;;;;5.00;5.00;;;;;-146.59;100.00;59519.28;4928710;28;49386;-91
2021/06/20 00:21:02;;;;;;;;;4.75;4.75;;;;;-146.59;100.00;59519.28;4923280;28;56773;-92
2021/06/20 00:23:27;;;;;;;;;6.25;5.25;;;;;-146.59;100.00;59519.28;4926063;28;47584;-90
2021/06/20 00:25:53;;;;;;;;;5.00;4.00;;;;;-146.59;100.00;59519.28;4922421;28;45666;-91
2021/06/20 00:28:19;;;;;;;;;6.50;4.25;;;;;-146.59;100.00;59519.28;4919647;28;45726;-94
2021/06/20 00:30:44;;;;;;;;;6.25;4.00;;;;;-146.59;100.00;59519.28;4927997;28;45561;-93
2021/06/20 00:33:10;;;;;;;;;6.25;4.00;;;;;-146.59;100.00;59519.28;4938267;28;46820;-91
2021/06/20 00:35:35;;;;;;;;;3.75;3.50;;;;;-146.59;100.00;59519.28;4932961;28;45479;-83
2021/06/20 00:38:01;;;;;;;;;4.50;4.50;;;;;-146.59;100.00;59519.28;4953836;28;45434;-82
2021/06/20 00:40:27;;;;;;;;;5.25;4.00;;;;;-146.59;100.00;59519.28;4960488;28;44708;-92
2021/06/20 00:42:52;;;;;;;;;2.75;2.75;;;;;-146.59;100.00;59519.28;4943178;28;46096;-87
2021/06/20 00:45:19;;;;;;;;;4.25;3.50;;;;;-146.59;100.00;59519.28;4944123;28;44953;-80
2021/06/20 00:47:44;;;;;;;;;5.50;4.25;;;;;-146.59;100.00;59519.28;4943816;28;44976;-84
2021/06/20 00:50:14;;;;;;;;;4.00;4.00;;;;;-146.59;100.00;59519.28;4944693;28;44901;-91
2021/06/20 00:52:40;;;;;;;;;5.00;5.00;;;;;-146.59;100.00;59519.28;4956442;28;46405;-92
2021/06/20 00:55:06;;;;;;;;;6.25;4.00;;;;;-146.59;100.00;59519.28;4951294;28;45693;-92
2021/06/20 00:57:33;;;;;;;;;4.00;4.00;;;;;-146.59;100.00;59519.28;4951582;28;44831;-84
2021/06/20 00:59:59;;;;;;;;;3.25;3.25;;;;;-146.59;100.00;59519.28;4940103;28;44797;-88
2021/06/20 01:02:25;;;;;;;;;2.25;2.25;;;;;-146.59;100.00;59519.28;4960259;28;46066;-91
2021/06/20 01:04:51;;;;;;;;;3.00;2.00;;;;;-146.59;100.00;59519.28;4936517;28;52970;-94
2021/06/20 01:07:21;;;;;;;;;3.75;3.75;;;;;-146.59;100.00;59519.28;4933752;28;45500;-88
2021/06/20 01:09:47;;;;;;;;;4.00;2.00;;;;;-146.59;100.00;59519.28;4931918;28;45088;-92
2021/06/20 01:12:14;;;;;;;;;5.75;2.75;;;;;-146.59;100.00;59519.28;4936992;28;45359;-93
2021/06/20 01:14:40;;;;;;;;;3.00;2.00;;;;;-146.59;100.00;59519.28;4931157;28;45344;-91
2021/06/20 01:17:06;;;;;;;;;3.00;3.00;;;;;-146.59;100.00;59519.28;4935489;28;45467;-93
2021/06/20 01:19:33;;;;;;;;;2.50;2.50;;;;;-146.59;100.00;59519.28;4925411;28;45236;-92
2021/06/20 01:22:17;;;;;;;;;2.00;2.00;;;;;-146.59;100.00;59519.28;4925394;28;45422;-88
2021/06/20 01:24:44;;;;;;;;;3.00;3.00;;;;;-146.59;100.00;59519.28;4926155;28;45849;-92
2021/06/20 01:27:12;;;;;;;;;2.00;2.00;;;;;-146.59;100.00;59519.28;4942452;28;45392;-93
2021/06/20 01:29:45;;;;;;;;;3.75;2.25;;;;;-146.59;100.00;59519.28;4937903;28;45518;-94
2021/06/20 01:32:12;;;;;;;;;2.50;2.50;;;;;-146.59;100.00;59519.28;4919824;28;46030;-93
2021/06/20 01:34:37;;;;;;;;;5.00;2.00;;;;;-146.59;100.00;59519.28;4924606;28;45382;-88
2021/06/20 01:37:07;;;;;;;;;2.75;1.75;;;;;-146.59;100.00;59519.28;4935900;28;53342;-91
2021/06/20 01:39:32;;;;;;;;;2.00;2.00;;;;;-146.59;100.00;59519.28;4935757;28;48431;-93
2021/06/20 01:41:58;;;;;;;;;2.75;2.00;;;;;-146.59;100.00;59519.28;4918503;28;45436;-93
2021/06/20 01:44:23;;;;;;;;;2.25;2.25;;;;;-146.59;100.00;59519.28;4920580;28;55429;-93
2021/06/20 01:46:49;;;;;;;;;2.25;2.25;;;;;-146.59;100.00;59519.28;4924824;28;57992;-92
2021/06/20 01:49:14;;;;;;;;;2.00;2.00;;;;;-146.59;100.00;59519.28;4918041;28;45460;-91
2021/06/20 01:51:42;;;;;;;;;2.00;2.00;;;;;-146.59;100.00;59519.28;4923185;28;56676;-93
2021/06/20 01:54:08;;;;;;;;;2.25;2.25;;;;;-146.59;100.00;59519.28;4903979;28;45411;-91
2021/06/20 01:56:33;;;;;;;;;2.25;2.25;;;;;-146.59;100.00;59519.28;4939054;28;45971;-93
2021/06/20 01:58:58;;;;;;;;;2.00;2.00;;;;;-146.59;100.00;59519.28;4934356;28;45788;-93
2021/06/20 02:01:27;;;;;;;;;2.25;1.75;;;;;-146.59;100.00;59519.28;4937688;28;45565;-93
2021/06/20 02:03:52;;;;;;;;;4.25;3.00;;;;;-146.59;100.00;59519.28;4916772;28;45344;-94
2021/06/20 02:06:17;;;;;;;;;4.00;2.00;;;;;-146.59;100.00;59519.28;4935571;28;50333;-91
2021/06/20 02:08:43;;;;;;;;;2.00;2.00;;;;;-146.59;100.00;59519.28;4929173;28;45506;-92
2021/06/20 02:11:10;;;;;;;;;2.75;2.25;;;;;-146.59;100.00;59519.28;4939856;28;50301;-94
2021/06/20 02:13:36;;;;;;;;;2.00;2.00;;;;;-146.59;100.00;59519.28;4920306;28;45740;-93
2021/06/20 02:16:02;;;;;;;;;2.50;2.00;;;;;-146.59;100.00;59519.28;4937523;28;45556;-94
2021/06/20 02:18:27;;;;;;;;;3.00;2.00;;;;;-146.59;100.00;59519.28;4919197;28;45637;-92
2021/06/20 02:20:54;;;;;;;;;2.00;2.00;;;;;-146.59;100.00;59519.28;4934131;28;53537;-94
2021/06/20 02:23:19;;;;;;;;;4.00;2.00;;;;;-146.59;100.00;59519.28;4920278;28;45861;-92
2021/06/20 02:25:45;;;;;;;;;2.50;2.00;;;;;-146.59;100.00;59519.28;4922891;28;45570;-92
2021/06/20 02:28:10;;;;;;;;;2.00;2.00;;;;;-146.59;100.00;59519.28;4937076;28;45362;-88
2021/06/20 02:30:36;;;;;;;;;2.00;2.00;;;;;-146.59;100.00;59519.28;4920457;28;51017;-91
2021/06/20 02:33:01;;;;;;;;;3.00;2.00;;;;;-146.59;100.00;59519.28;4907350;28;45418;-94
2021/06/20 02:35:27;;;;;;;;;1.25;1.25;;;;;-146.59;100.00;59519.28;4938981;28;46666;-93
2021/06/20 02:37:53;;;;;;;;;2.00;2.00;;;;;-146.59;100.00;59519.28;4923423;28;45898;-89
2021/06/20 02:40:19;;;;;;;;;2.50;1.50;;;;;-146.59;100.00;59519.28;4934122;28;45493;-92
2021/06/20 02:42:46;;;;;;;;;1.50;1.50;;;;;-146.59;100.00;59519.28;4919742;28;45585;-92
2021/06/20 02:45:15;;;;;;;;;3.75;1.75;;;;;-146.59;100.00;59519.28;4934514;28;45324;-93
2021/06/20 02:47:40;;;;;;;;;3.00;1.00;;;;;-146.59;100.00;59519.28;4937033;28;45494;-93
2021/06/20 02:50:07;;;;;;;;;3.00;1.75;;;;;-146.59;100.00;59519.28;4938168;28;49732;-92
2021/06/20 02:52:33;;;;;;;;;2.00;2.00;;;;;-146.59;100.00;59519.28;4919537;28;45453;-93
2021/06/20 02:55:00;;;;;;;;;1.75;1.75;;;;;-146.59;100.00;59519.28;4922704;28;55745;-93
2021/06/20 02:57:27;;;;;;;;;1.50;1.00;;;;;-146.59;100.00;59519.28;4921376;28;45598;-91
2021/06/20 02:59:54;;;;;;;;;1.75;1.50;;;;;-146.59;100.00;59519.28;4939981;28;45445;-89
2021/06/20 03:02:20;;;;;;;;;2.00;1.00;;;;;-146.59;100.00;59519.28;4939038;28;45378;-92
2021/06/20 03:04:46;;;;;;;;;2.00;2.00;;;;;-146.59;100.00;59519.28;4923024;28;45462;-93
2021/06/20 03:07:12;;;;;;;;;2.00;1.00;;;;;-146.59;100.00;59519.28;4925329;28;45273;-93
2021/06/20 03:09:37;;;;;;;;;2.00;2.00;;;;;-146.59;100.00;59519.28;4938156;28;46229;-92
2021/06/20 03:12:04;;;;;;;;;1.50;1.50;;;;;-146.59;100.00;59519.28;4931826;28;45540;-91
2021/06/20 03:14:30;;;;;;;;;1.00;1.00;;;;;-146.59;100.00;59519.28;4942770;28;45499;-92
2021/06/20 03:16:56;;;;;;;;;3.25;2.00;;;;;-146.59;100.00;59519.28;4947282;28;45469;-91
2021/06/20 03:19:22;;;;;;;;;2.75;1.50;;;;;-146.59;100.00;59519.28;4927202;28;47289;-91
2021/06/20 03:21:47;;;;;;;;;2.00;2.00;;;;;-146.59;100.00;59519.28;4936668;28;45319;-91
2021/06/20 03:24:12;;;;;;;;;1.50;1.50;;;;;-146.59;100.00;59519.28;4922624;28;45511;-88
2021/06/20 03:26:38;;;;;;;;;0.75;0.75;;;;;-146.59;100.00;59519.28;4925194;28;45497;-91
2021/06/20 03:29:04;;;;;;;;;1.00;1.00;;;;;-146.59;100.00;59519.28;4918613;28;47094;-93
2021/06/20 03:31:29;;;;;;;;;2.00;1.00;;;;;-146.59;100.00;59519.28;4923806;28;45449;-93
2021/06/20 03:33:58;;;;;;;;;1.25;1.25;;;;;-146.59;100.00;59519.28;4918332;28;44892;-90
2021/06/20 03:36:23;;;;;;;;;2.00;2.00;;;;;-146.59;100.00;59519.28;4920439;28;45494;-93
2021/06/20 03:38:49;;;;;;;;;1.25;1.25;;;;;-146.59;100.00;59519.28;4918624;28;45447;-93
2021/06/20 03:41:14;;;;;;;;;1.50;1.00;;;;;-146.59;100.00;59519.28;4939210;28;55476;-91
2021/06/20 03:43:41;;;;;;;;;1.00;1.00;;;;;-146.59;100.00;59519.28;4924685;28;49632;-93
2021/06/20 03:46:07;;;;;;;;;1.50;1.50;;;;;-146.59;100.00;59519.28;4918364;28;45850;-93
2021/06/20 03:48:32;;;;;;;;;3.00;2.00;;;;;-146.59;100.00;59519.28;4920945;28;54129;-93
2021/06/20 03:50:58;;;;;;;;;2.25;2.25;;;;;-146.59;100.00;59519.28;4923409;28;45720;-92
2021/06/20 03:53:23;;;;;;;;;6.25;2.00;;;;;-146.59;100.00;59519.28;4923245;28;45726;-88
2021/06/20 03:55:48;;;;;;;;;2.00;1.00;;;;;-146.59;100.00;59519.28;4938011;28;45283;-93
2021/06/20 03:58:14;;;;;;;;;1.00;1.00;;;;;-146.59;100.00;59519.28;4918830;28;50745;-90
2021/06/20 04:00:39;;;;;;;;;2.00;2.00;;;;;-146.59;100.00;59519.28;4919729;28;56338;-92
2021/06/20 04:03:05;;;;;;;;;3.00;1.25;;;;;-146.59;100.00;59519.28;4924033;28;45331;-92
2021/06/20 04:05:32;;;;;;;;;4.00;1.00;;;;;-146.59;100.00;59519.28;4919781;28;45248;-93
2021/06/20 04:07:58;;;;;;;;;3.00;2.00;;;;;-146.59;100.00;59519.28;4936718;28;45515;-91
2021/06/20 04:10:23;;;;;;;;;1.75;1.50;;;;;-146.59;100.00;59519.28;4923491;28;45627;-87
2021/06/20 04:12:49;;;;;;;;;1.75;1.50;;;;;-146.59;100.00;59519.28;4918138;28;45476;-92
2021/06/20 04:15:14;;;;;;;;;2.00;2.00;;;;;-146.59;100.00;59519.28;4917079;28;45680;-92
2021/06/20 04:17:40;;;;;;;;;3.00;2.00;;;;;-146.59;100.00;59519.28;4922847;28;49626;-92
2021/06/20 04:20:07;;;;;;;;;1.50;1.50;;;;;-146.59;100.00;59519.28;4919968;28;45525;-92
2021/06/20 04:22:33;;;;;;;;;2.25;2.25;;;;;-146.59;100.00;59519.28;4935621;28;45244;-92
2021/06/20 04:24:59;;;;;;;;;2.00;2.00;;;;;-146.59;100.00;59519.28;4941502;28;45476;-92
2021/06/20 04:27:24;;;;;;;;;2.00;1.00;;;;;-146.59;100.00;59519.28;4940670;28;46228;-93
2021/06/20 04:29:50;;;;;;;;;3.50;2.25;;;;;-146.59;100.00;59519.28;4920568;28;59087;-92
2021/06/20 04:32:15;;;;;;;;;3.75;2.00;;;;;-146.59;100.00;59519.28;4927165;28;51974;-92
2021/06/20 04:34:41;;;;;;;;;3.25;1.50;;;;;-146.59;100.00;59519.28;4925118;28;45288;-93
2021/06/20 04:37:06;;;;;;;;;4.00;2.00;;;;;-146.59;100.00;59519.28;4926218;28;59137;-92
2021/06/20 04:39:31;;;;;;;;;2.25;2.25;;;;;-146.59;100.00;59519.28;4926740;28;45412;-92
2021/06/20 04:41:57;;;;;;;;;5.00;2.00;;;;;-146.59;100.00;59519.28;4927612;28;45539;-92
2021/06/20 04:47:07;;;;;;;;;2.50;2.50;;;;;-146.59;100.00;59519.28;4922530;28;45634;-93
2021/06/20 04:49:32;;;;;;;;;2.50;2.50;;;;;-146.59;100.00;59519.28;4919568;28;45505;-93
2021/06/20 04:51:57;;;;;;;;;2.00;2.00;;;;;-146.59;100.00;59519.28;4916769;28;45521;-92
2021/06/20 04:54:23;;;;;;;;;1.00;1.00;;;;;-146.59;100.00;59519.28;4937827;28;45485;-92
2021/06/20 04:56:48;;;;;;;;;4.00;1.75;;;;;-146.59;100.00;59519.28;4921576;28;46566;-92
2021/06/20 04:59:14;;;;;;;;;1.00;1.00;;;;;-146.59;100.00;59519.28;4922999;28;45362;-91
2021/06/20 05:01:40;;;;;;;;;2.00;2.00;;;;;-146.59;100.00;59519.28;4940360;28;47071;-92
2021/06/20 05:04:06;;;;;;;;;3.00;3.00;;;;;-146.59;100.00;59519.28;4923113;28;45413;-91
2021/06/20 05:06:31;;;;;;;;;3.75;2.50;;;;;-146.59;100.00;59519.28;4928360;28;45490;-91
2021/06/20 05:08:57;;;;;;;;;4.50;3.00;;;;;-146.59;100.00;59519.28;4920551;28;45299;-91
2021/06/20 05:11:23;;;;;;;;;3.50;3.50;;;;;-146.59;100.00;59519.28;4939983;28;45561;-90
2021/06/20 05:13:48;;;;;;;;;5.00;3.00;;;;;-146.59;100.00;59519.28;4941612;28;45736;-91
2021/06/20 05:16:14;;;;;;;;;3.00;2.25;;;;;-146.59;100.00;59519.28;4940643;28;46479;-91
2021/06/20 05:18:39;;;;;;;;;2.50;2.00;;;;;-146.59;100.00;59519.28;4948527;28;45335;-91
2021/06/20 05:21:04;;;;;;;;;3.00;3.00;;;;;-146.59;100.00;59519.28;4929137;28;45776;-91
2021/06/20 05:23:30;;;;;;;;;4.00;3.25;;;;;-146.59;100.00;59519.28;4947824;28;44784;-91
2021/06/20 05:25:56;;;;;;;;;3.50;2.25;;;;;-146.59;100.00;59519.28;4946252;28;45299;-87
2021/06/20 05:28:21;;;;;;;;;2.50;2.50;;;;;-146.59;100.00;59519.28;4918174;28;45480;-92
2021/06/20 05:30:47;;;;;;;;;8.50;3.00;;;;;-146.59;100.00;59519.28;4925174;28;46036;-91
2021/06/20 05:33:14;;;;;;;;;2.00;2.00;;;;;-146.59;100.00;59519.28;4926601;28;45297;-89
2021/06/20 05:35:40;;;;;;;;;4.50;3.00;;;;;-146.59;100.00;59519.28;4937384;28;46625;-91
2021/06/20 05:38:06;;;;;;;;;2.25;2.00;;;;;-146.59;100.00;59519.28;4933581;28;45542;-91
2021/06/20 05:40:31;;;;;;;;;2.00;2.00;;;;;-146.59;100.00;59519.28;4920236;28;45580;-91
2021/06/20 05:42:56;;;;;;;;;3.00;3.00;;;;;-146.59;100.00;59519.28;4939520;28;45400;-92
2021/06/20 05:45:22;;;;;;;;;3.25;3.25;;;;;-146.59;100.00;59519.28;4923905;28;45390;-88
2021/06/20 05:47:47;;;;;;;;;4.00;3.75;;;;;-146.59;100.00;59519.28;4912964;28;45741;-91
2021/06/20 05:50:13;;;;;;;;;2.00;2.00;;;;;-146.59;100.00;59519.28;4936578;28;45541;-90
2021/06/20 05:52:38;;;;;;;;;2.00;2.00;;;;;-146.59;100.00;59519.28;4924291;28;45566;-89
2021/06/20 05:55:06;;;;;;;;;3.00;3.00;;;;;-146.59;100.00;59519.28;4920598;28;46542;-89
2021/06/20 05:57:31;;;;;;;;;3.50;3.50;;;;;-146.59;100.00;59519.28;4917717;28;48903;-89
2021/06/20 05:59:57;;;;;;;;;2.50;2.00;;;;;-146.59;100.00;59519.28;4921449;28;45444;-88
2021/06/20 06:02:22;;;;;;;;;3.75;2.00;;;;;-146.59;100.00;59519.28;4915428;28;45521;-88
2021/06/20 06:04:47;;;;;;;;;2.00;2.00;;;;;-146.59;100.00;59519.28;4916109;28;48285;-88
2021/06/20 06:07:13;;;;;;;;;3.75;3.00;;;;;-146.59;100.00;59519.28;4900368;28;62668;-88
2021/06/20 06:09:38;;;;;;;;;3.25;3.25;;;;;-146.59;100.00;59519.28;4917783;28;45531;-88
2021/06/20 06:12:05;;;;;;;;;2.75;2.75;;;;;-146.59;100.00;59519.28;4919018;28;47712;-90
2021/06/20 06:14:30;;;;;;;;;3.00;3.00;;;;;-146.59;100.00;59519.28;4917050;28;45543;-91
2021/06/20 06:16:56;;;;;;;;;3.00;3.00;;;;;-146.59;100.00;59519.28;4932201;28;45514;-87
2021/06/20 06:19:21;;;;;;;;;4.00;3.00;;;;;-146.59;100.00;59519.28;4915512;28;45654;-89
2021/06/20 06:21:47;;;;;;;;;5.00;4.00;;;;;-146.59;100.00;59519.28;4915512;28;45247;-89
2021/06/20 06:24:13;;;;;;;;;3.50;3.50;;;;;-146.59;100.00;59519.28;4919170;28;46201;-90
2021/06/20 06:26:39;;;;;;;;;5.00;3.00;;;;;-146.59;100.00;59519.28;4918366;28;45892;-89
2021/06/20 06:29:05;;;;;;;;;5.75;3.50;;;;;-146.59;100.00;59519.28;4919511;28;45448;-90
2021/06/20 06:31:31;;;;;;;;;4.75;3.00;;;;;-146.59;100.00;59519.28;4921261;28;45446;-86
2021/06/20 06:33:57;;;;;;;;;6.00;3.00;;;;;-146.59;100.00;59519.28;4933048;28;46122;-90
2021/06/20 06:36:22;;;;;;;;;3.00;3.00;;;;;-146.59;100.00;59519.28;4933984;28;45445;-90
2021/06/20 06:38:48;;;;;;;;;4.00;2.00;;;;;-146.59;100.00;59519.28;4922518;28;45834;-89
2021/06/20 06:41:17;;;;;;;;;2.00;2.00;;;;;-146.59;100.00;59519.28;4924756;28;54605;-88
2021/06/20 06:43:43;;;;;;;;;5.00;3.00;;;;;-146.59;100.00;59519.28;4936998;28;45694;-76
2021/06/20 06:46:08;;;;;;;;;3.00;3.00;;;;;-146.59;100.00;59519.28;4917569;28;45509;-76
2021/06/20 06:48:33;;;;;;;;;3.50;2.00;;;;;-146.59;100.00;59519.28;4918536;28;45341;-77
2021/06/20 06:50:59;;;;;;;;;5.75;5.75;;;;;-146.59;100.00;59519.28;4919315;28;63024;-76
2021/06/20 06:53:24;;;;;;;;;5.00;3.50;;;;;-146.59;100.00;59519.28;4918040;28;61361;-75
2021/06/20 06:55:49;;;;;;;;;4.50;3.50;;;;;-146.59;100.00;59519.28;4919159;28;55277;-73
2021/06/20 06:58:15;;;;;;;;;6.50;3.00;;;;;-146.59;100.00;59519.28;4932693;28;49709;-76
2021/06/20 07:00:40;;;;;;;;;3.25;3.25;;;;;-146.59;100.00;59519.28;4931040;28;45592;-76
2021/06/20 07:03:06;;;;;;;;;3.75;3.75;;;;;-146.59;100.00;59519.28;4920982;28;46762;-73
2021/06/20 07:05:31;;;;;;;;;5.50;4.50;;;;;-146.59;100.00;59519.28;4920097;28;45665;-76
2021/06/20 07:07:57;;;;;;;;;5.00;4.75;;;;;-146.59;100.00;59519.28;4934300;28;45502;-76
2021/06/20 07:10:23;;;;;;;;;5.25;5.25;;;;;-146.59;100.00;59519.28;4935114;28;45455;-76
2021/06/20 07:12:48;;;;;;;;;4.00;4.00;;;;;-146.59;100.00;59519.28;4929910;28;46074;-76
2021/06/20 07:15:14;;;;;;;;;6.00;4.00;;;;;-146.59;100.00;59519.28;4918633;28;45575;-75
2021/06/20 07:17:40;;;;;;;;;7.00;4.00;;;;;-146.59;100.00;59519.28;4934209;28;45451;-76
2021/06/20 07:20:10;;;;;;;;;2.75;2.75;;;;;-146.59;100.00;59519.28;4919807;28;53690;-74
2021/06/20 07:22:37;;;;;;;;;2.00;2.00;;;;;-146.59;100.00;59519.28;4900400;28;46230;-75
2021/06/20 07:25:04;;;;;;;;;3.25;3.25;;;;;-146.59;100.00;59519.28;4914914;28;45613;-75
2021/06/20 07:27:29;;;;;;;;;3.00;3.00;;;;;-146.59;100.00;59519.28;4916155;28;45439;-74
2021/06/20 07:29:54;;;;;;;;;3.00;3.00;;;;;-146.59;100.00;59519.28;4919312;28;52461;-76
2021/06/20 07:32:20;;;;;;;;;4.00;3.00;;;;;-146.59;100.00;59519.28;4922144;28;45484;-75
2021/06/20 07:34:45;;;;;;;;;3.00;2.00;;;;;-146.59;100.00;59519.28;4918959;28;53961;-75
2021/06/20 07:37:10;;;;;;;;;5.00;4.00;;;;;-146.59;100.00;59519.28;4918652;28;45368;-75
2021/06/20 07:39:36;;;;;;;;;3.00;3.00;;;;;-146.59;100.00;59519.28;4915918;28;60541;-75
2021/06/20 07:42:02;;;;;;;;;2.50;2.00;;;;;-146.59;100.00;59519.28;4917039;28;45460;-75
2021/06/20 07:44:27;;;;;;;;;6.25;3.25;;;;;-146.59;100.00;59519.28;4916759;28;45861;-74
2021/06/20 07:46:53;;;;;;;;;3.25;3.00;;;;;-146.59;100.00;59519.28;4913563;28;47850;-75
2021/06/20 07:49:19;;;;;;;;;2.75;2.75;;;;;-146.59;100.00;59519.28;4914900;28;45759;-76
2021/06/20 07:51:46;;;;;;;;;4.00;3.00;;;;;-146.59;100.00;59519.28;4915751;28;45441;-76
2021/06/20 07:54:12;;;;;;;;;3.75;2.25;;;;;-146.59;100.00;59519.28;4918982;28;45513;-74
2021/06/20 07:56:37;;;;;;;;;5.75;2.75;;;;;-146.59;100.00;59519.28;4916952;28;45667;-74
2021/06/20 07:59:02;;;;;;;;;2.75;2.75;;;;;-146.59;100.00;59519.28;4912932;28;45610;-74
2021/06/20 08:01:29;;;;;;;;;4.00;3.25;;;;;-146.59;100.00;59519.28;4913877;28;66835;-74
2021/06/20 08:03:54;;;;;;;;;4.25;4.00;;;;;-146.59;100.00;59519.28;4929359;28;45458;-77
2021/06/20 08:06:20;;;;;;;;;4.25;3.00;;;;;-146.59;100.00;59519.28;4915433;28;46288;-76
2021/06/20 08:08:46;;;;;;;;;7.50;4.00;;;;;-146.59;100.00;59519.28;4914250;28;45533;-73
2021/06/20 08:11:11;;;;;;;;;3.75;3.00;;;;;-146.59;100.00;59519.28;4913740;28;46466;-76
2021/06/20 08:13:37;;;;;;;;;5.00;4.00;;;;;-146.59;100.00;59519.28;4929704;28;45371;-73
2021/06/20 08:16:02;;;;;;;;;2.75;2.75;;;;;-146.59;100.00;59519.28;4913399;28;45402;-74
2021/06/20 08:18:28;;;;;;;;;2.00;2.00;;;;;-146.59;100.00;59519.28;4912437;28;45392;-74
2021/06/20 08:20:53;;;;;;;;;3.00;3.00;;;;;-146.59;100.00;59519.28;4918328;28;46533;-74
2021/06/20 08:23:18;;;;;;;;;2.75;2.75;;;;;-146.59;100.00;59519.28;4932795;28;45450;-74
2021/06/20 08:25:44;;;;;;;;;3.00;3.00;;;;;-146.59;100.00;59519.28;4915647;28;53720;-74
2021/06/20 08:28:09;;;;;;;;;3.00;3.00;;;;;-146.59;100.00;59519.28;4917140;28;51905;-76
2021/06/20 08:30:34;;;;;;;;;2.00;2.00;;;;;-146.59;100.00;59519.28;4910867;28;45969;-73
2021/06/20 08:33:00;;;;;;;;;3.50;3.00;;;;;-146.59;100.00;59519.28;4918073;28;47587;-76
2021/06/20 08:35:26;;;;;;;;;2.25;2.25;;;;;-146.59;100.00;59519.28;4931741;28;45521;-76
2021/06/20 08:37:55;;;;;;;;;2.75;2.75;;;;;-146.59;100.00;59519.28;4932086;28;45399;-81
2021/06/20 08:40:20;;;;;;;;;4.50;2.00;;;;;-146.59;100.00;59519.28;4913809;28;47710;-76
2021/06/20 08:42:46;;;;;;;;;3.25;3.25;;;;;-146.59;100.00;59519.28;4915548;28;45496;-76
2021/06/20 08:45:14;;;;;;;;;4.75;3.00;;;;;-146.59;100.00;59519.28;4915895;28;46447;-75
2021/06/20 08:47:40;;;;;;;;;3.00;3.00;;;;;-146.59;100.00;59519.28;4917344;28;45710;-75
2021/06/20 08:50:06;;;;;;;;;2.00;2.00;;;;;-146.59;100.00;59519.28;4915300;28;45450;-74
2021/06/20 08:52:32;;;;;;;;;1.50;1.50;;;;;-146.59;100.00;59519.28;4916757;28;45781;-75
2021/06/20 08:55:00;;;;;;;;;2.00;2.00;;;;;-146.59;100.00;59519.28;4931879;28;45692;-75
2021/06/20 08:57:29;;;;;;;;;4.75;3.00;;;;;-146.59;100.00;59519.28;4917979;28;45461;-76
2021/06/20 08:59:55;;;;;;;;;4.00;3.00;;;;;-146.59;100.00;59519.28;4915994;28;46329;-75
2021/06/20 09:02:28;;;;;;;;;4.50;3.25;;;;;-146.59;100.00;59519.28;4907877;28;45490;-75
2021/06/20 09:04:58;;;;;;;;;4.75;2.50;;;;;-146.59;100.00;59519.28;4910224;28;45422;-75
2021/06/20 09:07:38;;;;;;;;;2.00;2.00;;;;;-146.59;100.00;59519.28;4917482;28;45570;-75
2021/06/20 09:10:18;;;;;;;;;2.00;2.00;;;;;-146.59;100.00;59519.28;4930637;28;45618;-75
2021/06/20 09:12:45;;;;;;;;;3.00;2.50;;;;;-146.59;100.00;59519.28;4916271;28;45274;-75
2021/06/20 09:15:13;;;;;;;;;4.00;1.00;;;;;-146.59;100.00;59519.28;4917540;28;45718;-75
2021/06/20 09:17:38;;;;;;;;;4.00;2.75;;;;;-146.59;100.00;59519.28;4931747;28;45507;-75
2021/06/20 09:20:05;;;;;;;;;2.50;2.50;;;;;-146.59;100.00;59519.28;4931140;28;45631;-75
2021/06/20 09:22:32;;;;;;;;;3.25;2.00;;;;;-146.59;100.00;59519.28;4915822;28;45492;-75
2021/06/20 09:25:09;;;;;;;;;2.75;2.75;;;;;-146.59;100.00;59519.28;4931968;28;45585;-76
2021/06/20 09:27:35;;;;;;;;;2.50;2.00;;;;;-146.59;100.00;59519.28;4916740;28;45335;-76
2021/06/20 09:30:08;;;;;;;;;4.75;2.25;;;;;-146.59;100.00;59519.28;4898663;28;47944;-75
2021/06/20 09:32:34;;;;;;;;;2.75;2.75;;;;;-146.59;100.00;59519.28;4916253;28;45493;-76
2021/06/20 09:34:59;;;;;;;;;3.00;2.25;;;;;-146.59;100.00;59519.28;4916909;28;46182;-75
2021/06/20 09:37:27;;;;;;;;;2.00;2.00;;;;;-146.59;100.00;59519.28;4931046;28;45533;-75
2021/06/20 09:39:52;;;;;;;;;2.00;2.00;;;;;-146.59;100.00;59519.28;4914946;28;46086;-73
2021/06/20 09:42:18;;;;;;;;;3.00;1.50;;;;;-146.59;100.00;59519.28;4931958;28;46962;-73
2021/06/20 09:44:48;;;;;;;;;3.25;2.00;;;;;-146.59;100.00;59519.28;4931445;28;45859;-73
2021/06/20 09:47:19;;;;;;;;;3.50;3.00;;;;;-146.59;100.00;59519.28;4931073;28;45620;-74
2021/06/20 09:49:49;;;;;;;;;3.50;2.00;;;;;-146.59;100.00;59519.28;4916740;28;45350;-75
2021/06/20 09:52:25;;;;;;;;;1.25;1.25;;;;;-146.59;100.00;59519.28;4930446;28;45941;-74
2021/06/20 09:54:54;;;;;;;;;2.00;2.00;;;;;-146.59;100.00;59519.28;4907419;28;46907;-74
2021/06/20 09:57:21;;;;;;;;;2.00;2.00;;;;;-146.59;100.00;59519.28;4912454;28;45796;-74
2021/06/20 09:59:57;;;;;;;;;2.00;2.00;;;;;-146.59;100.00;59519.28;4915394;28;45477;-74
2021/06/20 10:02:27;;;;;;;;;4.00;2.00;;;;;-146.59;100.00;59519.28;4915374;28;45757;-74
2021/06/20 10:04:52;;;;;;;;;3.25;3.00;;;;;-146.59;100.00;59519.28;4909117;28;45600;-74
2021/06/20 10:07:18;;;;;;;;;2.25;2.00;;;;;-146.59;100.00;59519.28;4930001;28;45497;-74
2021/06/20 10:09:43;;;;;;;;;2.00;2.00;;;;;-146.59;100.00;59519.28;4914672;28;45876;-73
2021/06/20 10:12:09;;;;;;;;;2.00;2.00;;;;;-146.59;100.00;59519.28;4915217;28;56290;-74
2021/06/20 10:14:42;;;;;;;;;1.75;1.75;;;;;-146.59;100.00;59519.28;4934356;28;45514;-74
2021/06/20 10:17:10;;;;;;;;;3.50;2.00;;;;;-146.59;100.00;59519.28;4914867;28;45633;-74
2021/06/20 10:19:40;;;;;;;;;1.00;1.00;;;;;-146.59;100.00;59519.28;4930252;28;45332;-74
2021/06/20 10:22:11;;;;;;;;;1.00;1.00;;;;;-146.59;100.00;59519.28;4928887;28;45817;-74
2021/06/20 10:24:43;;;;;;;;;4.75;1.75;;;;;-146.59;100.00;59519.28;4914810;28;45572;-74
2021/06/20 10:27:09;;;;;;;;;1.00;1.00;;;;;-146.59;100.00;59519.28;4916877;28;45493;-75
2021/06/20 10:29:37;;;;;;;;;0.75;0.75;;;;;-146.59;100.00;59519.28;4929850;28;46548;-75
2021/06/20 10:32:17;;;;;;;;;0.75;0.75;;;;;-146.59;100.00;59519.28;4914328;28;45806;-74
2021/06/20 10:34:52;;;;;;;;;0.50;0.50;;;;;-146.59;100.00;59519.28;4931460;28;45534;-75
2021/06/20 10:37:19;;;;;;;;;0.75;0.75;;;;;-146.59;100.00;59519.28;4930668;28;45522;-74
2021/06/20 10:39:49;;;;;;;;;2.25;1.00;;;;;-146.59;100.00;59519.28;4915580;28;46295;-75
2021/06/20 10:42:15;;;;;;;;;0.25;0.25;;;;;-146.59;100.00;59519.28;4915032;28;45744;-74
2021/06/20 10:44:50;;;;;;;;;0.00;0.00;;;;;-146.59;100.00;59519.28;4926328;28;45464;-74
2021/06/20 10:47:26;;;;;;;;;0.00;0.00;;;;;-146.59;100.00;59519.28;4915390;28;45740;-73
2021/06/20 10:49:59;;;;;;;;;0.50;0.00;;;;;-146.59;100.00;59519.28;4930443;28;45895;-74
2021/06/20 10:52:25;;;;;;;;;2.50;2.50;;;;;-146.59;100.00;59519.28;4930316;28;45799;-74
2021/06/20 10:55:05;;;;;;;;;2.00;1.00;;;;;-146.59;100.00;59519.28;4929473;28;45548;-74
2021/06/20 10:57:31;;;;;;;;;2.00;2.00;;;;;-146.59;100.00;59519.28;4904876;28;46038;-75
2021/06/20 10:59:57;;;;;;;;;2.00;1.00;;;;;-146.59;100.00;59519.28;4911825;28;45609;-73
2021/06/20 11:02:34;;;;;;;;;1.00;1.00;;;;;-146.59;100.00;59519.28;4927358;28;45004;-92
2021/06/20 11:05:01;;;;;;;;;1.00;1.00;;;;;-146.59;100.00;59519.28;4913505;28;45586;-91
2021/06/20 11:07:29;;;;;;;;;2.00;0.25;;;;;-146.59;100.00;59519.28;4920563;28;45353;-88
2021/06/20 11:09:57;;;;;;;;;3.50;2.00;;;;;-146.59;100.00;59519.28;4915212;28;46311;-86